createdAt,value
2019-02-16T00:02:07.715Z,75.70
2019-02-16T00:04:36.382Z,75.70
2019-02-16T00:07:05.097Z,75.70
2019-02-16T00:09:32.677Z,75.70
2019-02-16T00:12:00.342Z,75.60
2019-02-16T00:14:27.882Z,75.40
2019-02-16T00:16:55.627Z,75.50
2019-02-16T00:19:23.284Z,75.60
2019-02-16T00:21:51.997Z,75.50
2019-02-16T00:24:20.093Z,75.40
2019-02-16T00:26:47.675Z,75.10
2019-02-16T00:29:16.027Z,75.20
2019-02-16T00:31:43.610Z,75.30
2019-02-16T00:34:11.406Z,75.20
2019-02-16T00:36:38.863Z,75.20
2019-02-16T00:39:06.451Z,75.10
2019-02-16T00:41:34.328Z,75.40
2019-02-16T00:44:01.687Z,75.30
2019-02-16T00:46:29.318Z,75.20
2019-02-16T00:48:57.233Z,75.20
2019-02-16T00:51:43.490Z,75.50
2019-02-16T00:54:29.322Z,75.40
2019-02-16T00:56:57.123Z,75.40
2019-02-16T00:59:24.956Z,75.30
2019-02-16T01:01:52.669Z,75.30
2019-02-16T01:04:20.458Z,75.30
2019-02-16T01:06:48.076Z,75.70
2019-02-16T01:09:15.692Z,75.60
2019-02-16T01:11:43.963Z,75.80
2019-02-16T01:14:11.500Z,75.80
2019-02-16T01:16:40.394Z,75.80
2019-02-16T01:19:08.473Z,75.80
2019-02-16T01:21:36.785Z,75.60
2019-02-16T01:24:04.384Z,75.60
2019-02-16T01:26:31.774Z,75.70
2019-02-16T01:28:59.602Z,75.70
2019-02-16T01:31:28.102Z,75.60
2019-02-16T01:33:56.559Z,75.60
2019-02-16T01:36:24.482Z,75.70
2019-02-16T01:38:52.134Z,75.70
2019-02-16T01:41:20.987Z,75.60
2019-02-16T01:43:49.330Z,75.70
2019-02-16T01:46:17.470Z,76.70
2019-02-16T01:48:45.941Z,76.00
2019-02-16T01:51:13.854Z,75.80
2019-02-16T01:53:41.594Z,75.70
2019-02-16T01:56:09.142Z,75.80
2019-02-16T01:58:36.800Z,75.70
2019-02-16T02:01:04.354Z,75.60
2019-02-16T02:03:32.266Z,75.80
2019-02-16T02:05:59.801Z,75.80
2019-02-16T02:08:27.655Z,76.50
2019-02-16T02:10:55.346Z,75.70
2019-02-16T02:13:22.838Z,75.70
2019-02-16T02:15:50.736Z,75.90
2019-02-16T02:18:18.301Z,75.90
2019-02-16T02:20:46.377Z,75.90
2019-02-16T02:23:14.345Z,75.90
2019-02-16T02:25:41.901Z,75.90
2019-02-16T02:28:09.895Z,76.10
2019-02-16T02:30:41.268Z,75.70
2019-02-16T02:33:08.730Z,75.80
2019-02-16T02:35:36.235Z,75.90
2019-02-16T02:38:04.417Z,75.80
2019-02-16T02:40:33.168Z,75.70
2019-02-16T02:43:01.924Z,75.80
2019-02-16T02:45:29.881Z,75.90
2019-02-16T02:47:58.063Z,75.60
2019-02-16T02:50:25.405Z,75.70
2019-02-16T02:52:53.991Z,75.90
2019-02-16T02:55:21.700Z,76.00
2019-02-16T02:57:49.196Z,76.00
2019-02-16T03:00:16.865Z,76.00
2019-02-16T03:02:44.937Z,76.00
2019-02-16T03:05:12.691Z,76.00
2019-02-16T03:07:41.530Z,76.00
2019-02-16T03:10:09.232Z,76.10
2019-02-16T03:12:37.259Z,76.40
2019-02-16T03:15:05.785Z,76.10
2019-02-16T03:17:33.861Z,76.20
2019-02-16T03:20:01.408Z,76.30
2019-02-16T03:23:10.902Z,76.40
2019-02-16T03:25:38.727Z,76.40
2019-02-16T03:28:25.327Z,76.50
2019-02-16T03:31:23.249Z,76.50
2019-02-16T03:33:55.988Z,76.40
2019-02-16T03:36:58.614Z,76.70
2019-02-16T03:39:36.373Z,77.30
2019-02-16T03:42:04.432Z,76.80
2019-02-16T03:44:32.305Z,77.00
2019-02-16T03:47:00.983Z,77.10
2019-02-16T03:49:29.200Z,77.00
2019-02-16T03:51:57.876Z,76.90
2019-02-16T03:54:25.510Z,77.10
2019-02-16T03:56:53.887Z,77.00
2019-02-16T03:59:21.458Z,77.00
2019-02-16T04:01:49.375Z,77.10
2019-02-16T04:04:16.853Z,77.10
2019-02-16T04:06:44.517Z,77.10
2019-02-16T04:09:12.113Z,76.90
2019-02-16T04:11:39.656Z,77.10
2019-02-16T04:14:07.826Z,77.30
2019-02-16T04:16:36.213Z,77.10
2019-02-16T04:19:03.762Z,77.10
2019-02-16T04:21:35.558Z,77.30
2019-02-16T04:24:03.903Z,77.20
2019-02-16T04:26:31.510Z,77.30
2019-02-16T04:28:59.373Z,77.40
2019-02-16T04:31:27.237Z,77.50
2019-02-16T04:33:55.655Z,77.60
2019-02-16T04:36:23.236Z,77.40
2019-02-16T04:38:51.026Z,77.40
2019-02-16T04:41:18.726Z,77.40
2019-02-16T04:43:46.926Z,77.10
2019-02-16T04:46:14.760Z,77.60
2019-02-16T04:48:42.775Z,77.50
2019-02-16T04:51:11.394Z,77.40
2019-02-16T04:53:41.947Z,77.70
2019-02-16T04:56:09.854Z,77.70
2019-02-16T04:58:37.760Z,77.60
2019-02-16T05:01:05.393Z,77.60
2019-02-16T05:03:33.355Z,77.70
2019-02-16T05:06:01.126Z,77.70
2019-02-16T05:08:29.345Z,77.60
2019-02-16T05:10:57.174Z,77.70
2019-02-16T05:13:25.107Z,77.70
2019-02-16T05:15:53.026Z,77.70
2019-02-16T05:18:20.935Z,77.70
2019-02-16T05:20:49.030Z,77.70
2019-02-16T05:23:16.561Z,77.80
2019-02-16T05:25:44.654Z,78.00
2019-02-16T05:28:12.936Z,77.80
2019-02-16T05:30:40.940Z,77.90
2019-02-16T05:33:08.340Z,78.10
2019-02-16T05:35:36.157Z,77.90
2019-02-16T05:38:03.963Z,77.90
2019-02-16T05:40:31.974Z,77.90
2019-02-16T05:43:00.334Z,78.00
2019-02-16T05:45:28.201Z,77.90
2019-02-16T05:47:55.689Z,77.90
2019-02-16T05:50:23.703Z,78.00
2019-02-16T05:52:54.436Z,78.20
2019-02-16T05:55:21.625Z,78.00
2019-02-16T05:57:49.229Z,78.10
2019-02-16T06:00:19.181Z,78.00
2019-02-16T06:02:47.280Z,78.30
2019-02-16T06:05:15.024Z,78.50
2019-02-16T06:07:42.834Z,79.10
2019-02-16T06:10:10.845Z,78.30
2019-02-16T06:12:38.847Z,78.20
2019-02-16T06:15:07.191Z,78.20
2019-02-16T06:17:34.674Z,78.10
2019-02-16T06:20:02.505Z,78.10
2019-02-16T06:22:31.555Z,77.90
2019-02-16T06:25:00.040Z,78.00
2019-02-16T06:27:28.199Z,78.00
2019-02-16T06:29:57.177Z,78.00
2019-02-16T06:32:24.734Z,78.00
2019-02-16T06:34:59.503Z,78.00
2019-02-16T06:37:27.659Z,78.30
2019-02-16T06:39:55.408Z,78.60
2019-02-16T06:42:26.502Z,78.60
2019-02-16T06:44:54.391Z,78.50
2019-02-16T06:47:22.487Z,78.50
2019-02-16T06:49:50.905Z,78.20
2019-02-16T06:52:19.012Z,78.20
2019-02-16T06:54:48.440Z,78.30
2019-02-16T06:57:27.100Z,78.30
2019-02-16T06:59:55.333Z,78.20
2019-02-16T07:02:24.237Z,79.10
2019-02-16T07:04:52.314Z,78.40
2019-02-16T07:07:20.987Z,78.30
2019-02-16T07:09:48.682Z,78.40
2019-02-16T07:12:16.462Z,78.40
2019-02-16T07:14:44.581Z,78.70
2019-02-16T07:17:27.715Z,78.70
2019-02-16T07:19:58.737Z,78.60
2019-02-16T07:22:27.039Z,78.80
2019-02-16T07:24:55.193Z,78.70
2019-02-16T07:27:23.577Z,78.60
2019-02-16T07:29:51.931Z,79.10
2019-02-16T07:32:20.141Z,79.20
2019-02-16T07:34:48.280Z,79.20
2019-02-16T07:37:16.928Z,79.20
2019-02-16T07:39:45.872Z,79.00
2019-02-16T07:42:13.431Z,79.30
2019-02-16T07:45:07.310Z,79.30
2019-02-16T07:47:47.889Z,79.20
2019-02-16T07:50:43.909Z,79.20
2019-02-16T07:53:34.320Z,79.20
2019-02-16T07:56:21.936Z,79.30
2019-02-16T07:58:55.757Z,79.40
2019-02-16T08:01:41.620Z,79.50
2019-02-16T08:04:18.501Z,79.70
2019-02-16T08:06:57.018Z,79.80
2019-02-16T08:09:31.220Z,79.70
2019-02-16T08:12:13.125Z,79.80
2019-02-16T08:15:00.498Z,80.00
2019-02-16T08:17:46.854Z,80.00
2019-02-16T08:20:32.728Z,80.00
2019-02-16T08:23:20.522Z,80.00
2019-02-16T08:26:22.631Z,80.00
2019-02-16T08:29:17.961Z,80.00
2019-02-16T08:32:04.405Z,80.10
2019-02-16T08:34:49.944Z,80.40
2019-02-16T08:37:36.585Z,80.40
2019-02-16T08:40:33.800Z,80.30
2019-02-16T08:43:26.883Z,80.40
2019-02-16T08:46:17.217Z,80.40
2019-02-16T08:49:03.862Z,80.60
2019-02-16T08:51:51.698Z,80.70
2019-02-16T08:54:38.620Z,80.70
2019-02-16T08:57:35.051Z,80.70
2019-02-16T09:00:23.255Z,80.50
2019-02-16T09:03:00.057Z,80.40
2019-02-16T09:05:33.454Z,80.70
2019-02-16T09:08:23.877Z,80.90
2019-02-16T09:11:29.908Z,81.00
2019-02-16T09:14:13.375Z,81.10
2019-02-16T09:17:01.793Z,81.20
2019-02-16T09:19:42.626Z,81.30
2019-02-16T09:22:17.905Z,81.60
2019-02-16T09:25:11.505Z,81.70
2019-02-16T09:27:55.754Z,81.70
2019-02-16T09:30:42.352Z,81.80
2019-02-16T09:33:27.991Z,81.70
2019-02-16T09:36:22.189Z,81.70
2019-02-16T09:38:55.731Z,81.70
2019-02-16T09:41:46.018Z,82.00
2019-02-16T09:44:31.967Z,81.90
2019-02-16T09:47:08.683Z,81.90
2019-02-16T09:49:49.787Z,81.90
2019-02-16T09:52:31.007Z,82.00
2019-02-16T09:55:08.760Z,82.20
2019-02-16T09:58:00.845Z,82.40
2019-02-16T10:00:43.302Z,82.50
2019-02-16T10:03:29.017Z,82.30
2019-02-16T10:06:16.465Z,82.20
2019-02-16T10:09:12.773Z,82.00
2019-02-16T10:12:03.943Z,82.00
2019-02-16T10:14:53.640Z,82.10
2019-02-16T10:17:35.701Z,82.20
2019-02-16T10:20:23.128Z,82.40
2019-02-16T10:23:10.849Z,82.50
2019-02-16T10:25:56.392Z,82.60
2019-02-16T10:28:47.141Z,82.70
2019-02-16T10:31:37.454Z,82.80
2019-02-16T10:34:13.171Z,82.80
2019-02-16T10:36:46.743Z,82.70
2019-02-16T10:39:43.228Z,82.80
2019-02-16T10:42:33.659Z,83.10
2019-02-16T10:45:30.669Z,83.20
2019-02-16T10:48:19.627Z,83.40
2019-02-16T10:51:07.855Z,83.60
2019-02-16T10:53:42.788Z,83.70
2019-02-16T10:56:29.998Z,84.00
2019-02-16T10:59:18.735Z,84.00
2019-02-16T11:01:57.434Z,84.20
2019-02-16T11:04:38.132Z,84.20
2019-02-16T11:07:27.829Z,84.40
2019-02-16T11:10:14.341Z,84.50
2019-02-16T11:13:04.405Z,84.50
2019-02-16T11:16:07.407Z,84.50
2019-02-16T11:18:54.219Z,84.50
2019-02-16T11:21:47.897Z,84.60
2019-02-16T11:24:35.981Z,84.60
2019-02-16T11:27:07.897Z,84.60
2019-02-16T11:30:07.510Z,84.70
2019-02-16T11:33:01.070Z,84.50
2019-02-16T11:35:46.695Z,84.20
2019-02-16T11:38:21.377Z,85.00
2019-02-16T11:41:18.661Z,84.10
2019-02-16T11:43:58.021Z,84.00
2019-02-16T11:46:43.969Z,84.00
2019-02-16T11:49:31.391Z,84.10
2019-02-16T11:52:25.145Z,84.00
2019-02-16T11:55:15.341Z,84.10
2019-02-16T11:58:02.798Z,84.20
2019-02-16T12:00:40.987Z,84.00
2019-02-16T12:03:16.138Z,84.20
2019-02-16T12:06:02.322Z,84.10
2019-02-16T12:08:36.757Z,84.10
2019-02-16T12:11:24.283Z,84.30
2019-02-16T12:14:00.301Z,84.30
2019-02-16T12:16:38.963Z,84.30
2019-02-16T12:19:38.462Z,84.30
2019-02-16T12:22:24.763Z,84.50
2019-02-16T12:25:12.602Z,84.40
2019-02-16T12:28:02.554Z,84.60
2019-02-16T12:30:38.335Z,84.40
2019-02-16T12:33:28.668Z,84.50
2019-02-16T12:36:14.203Z,84.40
2019-02-16T12:38:50.670Z,84.40
2019-02-16T12:41:43.172Z,84.10
2019-02-16T12:44:36.776Z,84.00
2019-02-16T12:47:22.777Z,83.80
2019-02-16T12:50:10.079Z,83.70
2019-02-16T12:53:00.897Z,83.10
2019-02-16T12:55:42.127Z,83.00
2019-02-16T12:58:15.989Z,82.90
2019-02-16T13:01:15.696Z,82.80
2019-02-16T13:04:08.915Z,82.80
2019-02-16T13:06:47.358Z,82.80
2019-02-16T13:09:40.639Z,82.70
2019-02-16T13:12:35.272Z,82.30
2019-02-16T13:15:21.654Z,82.10
2019-02-16T13:18:24.421Z,81.70
2019-02-16T13:21:11.954Z,81.80
2019-02-16T13:23:58.947Z,81.50
2019-02-16T13:26:46.017Z,81.10
2019-02-16T13:29:36.594Z,81.00
2019-02-16T13:32:24.624Z,81.30
2019-02-16T13:35:12.054Z,81.10
2019-02-16T13:37:56.695Z,80.70
2019-02-16T13:40:48.552Z,80.50
2019-02-16T13:43:24.262Z,80.30
2019-02-16T13:46:04.003Z,80.10
2019-02-16T13:48:45.830Z,79.80
2019-02-16T13:51:31.485Z,80.00
2019-02-16T13:54:21.552Z,79.90
2019-02-16T13:57:03.181Z,80.00
2019-02-16T13:59:49.138Z,79.60
2019-02-16T14:02:46.225Z,79.50
2019-02-16T14:05:22.915Z,79.00
2019-02-16T14:08:16.041Z,79.00
2019-02-16T14:11:06.565Z,78.90
2019-02-16T14:13:41.903Z,78.70
2019-02-16T14:16:32.803Z,78.60
2019-02-16T14:19:02.213Z,78.70
2019-02-16T14:21:31.840Z,78.60
2019-02-16T14:23:59.984Z,77.80
2019-02-16T14:26:29.173Z,77.90
2019-02-16T14:28:57.065Z,78.10
2019-02-16T14:31:28.367Z,78.10
2019-02-16T14:33:54.489Z,77.80
2019-02-16T14:36:25.372Z,77.40
2019-02-16T14:38:58.084Z,77.30
2019-02-16T14:41:25.747Z,77.10
2019-02-16T14:43:53.678Z,76.50
2019-02-16T14:46:21.569Z,76.60
2019-02-16T14:48:50.006Z,76.50
2019-02-16T14:51:18.296Z,76.40
2019-02-16T14:53:46.156Z,76.80
2019-02-16T14:56:13.925Z,77.00
2019-02-16T14:58:42.011Z,77.10
2019-02-16T15:01:09.984Z,76.50
2019-02-16T15:03:37.950Z,75.90
2019-02-16T15:06:06.411Z,76.10
2019-02-16T15:08:35.117Z,76.30
2019-02-16T15:11:02.881Z,76.20
2019-02-16T15:13:32.356Z,76.60
2019-02-16T15:16:00.438Z,76.50
2019-02-16T15:18:28.605Z,76.20
2019-02-16T15:20:56.562Z,75.80
2019-02-16T15:23:24.874Z,75.70
2019-02-16T15:26:00.526Z,75.70
2019-02-16T15:28:23.051Z,75.90
2019-02-16T15:30:50.723Z,76.80
2019-02-16T15:33:19.231Z,76.30
2019-02-16T15:35:48.409Z,76.50
2019-02-16T15:38:16.275Z,76.60
2019-02-16T15:40:44.306Z,76.90
2019-02-16T15:43:12.015Z,77.20
2019-02-16T15:45:40.267Z,77.40
2019-02-16T15:48:08.348Z,77.60
2019-02-16T15:50:36.150Z,77.90
2019-02-16T15:53:05.227Z,78.10
2019-02-16T15:55:33.318Z,78.20
2019-02-16T15:58:04.928Z,78.40
2019-02-16T16:00:34.033Z,78.40
2019-02-16T16:03:02.830Z,78.50
2019-02-16T16:05:30.295Z,78.60
2019-02-16T16:08:20.708Z,78.70
2019-02-16T16:11:01.323Z,78.60
2019-02-16T16:13:47.837Z,78.70
2019-02-16T16:16:23.077Z,78.40
2019-02-16T16:19:08.447Z,78.40
2019-02-16T16:21:46.077Z,78.30
2019-02-16T16:24:23.682Z,78.30
2019-02-16T16:27:07.062Z,78.20
2019-02-16T16:30:06.993Z,77.80
2019-02-16T16:32:48.061Z,78.10
2019-02-16T16:35:32.829Z,78.60
2019-02-16T16:38:40.947Z,78.30
2019-02-16T16:41:33.529Z,78.30
2019-02-16T16:44:21.527Z,78.20
2019-02-16T16:47:18.874Z,78.40
2019-02-16T16:50:02.817Z,78.40
2019-02-16T16:52:38.136Z,78.80
2019-02-16T16:55:24.100Z,79.20
2019-02-16T16:58:20.179Z,79.50
2019-02-16T17:01:19.992Z,79.90
2019-02-16T17:04:11.932Z,80.40
2019-02-16T17:07:08.332Z,80.80
2019-02-16T17:10:04.400Z,81.90
2019-02-16T17:12:59.234Z,81.30
2019-02-16T17:15:47.600Z,81.50
2019-02-16T17:18:34.550Z,82.00
2019-02-16T17:21:25.062Z,82.40
2019-02-16T17:24:12.567Z,82.50
2019-02-16T17:26:48.655Z,82.40
2019-02-16T17:29:22.428Z,82.20
2019-02-16T17:32:06.866Z,82.30
2019-02-16T17:34:45.713Z,82.40
2019-02-16T17:37:32.260Z,82.30
2019-02-16T17:40:15.289Z,82.20
2019-02-16T17:42:55.477Z,82.50
2019-02-16T17:45:49.210Z,82.50
2019-02-16T17:48:35.351Z,82.80
2019-02-16T17:51:10.719Z,82.60
2019-02-16T17:54:08.435Z,82.70
2019-02-16T17:56:46.848Z,82.80
2019-02-16T17:59:20.898Z,83.00
2019-02-16T18:02:02.177Z,83.00
2019-02-16T18:04:51.767Z,83.10
2019-02-16T18:07:38.908Z,83.20
2019-02-16T18:10:15.558Z,83.20
2019-02-16T18:13:17.973Z,82.60
2019-02-16T18:16:11.180Z,83.00
2019-02-16T18:18:46.430Z,83.10
2019-02-16T18:21:27.101Z,83.10
2019-02-16T18:24:00.057Z,83.20
2019-02-16T18:26:46.133Z,83.00
2019-02-16T18:29:39.415Z,83.20
2019-02-16T18:32:33.555Z,83.50
2019-02-16T18:35:48.015Z,83.60
2019-02-16T18:38:29.151Z,83.80
2019-02-16T18:41:29.087Z,83.80
2019-02-16T18:44:16.596Z,83.80
2019-02-16T18:47:06.397Z,83.70
2019-02-16T18:49:41.694Z,83.60
2019-02-16T18:52:44.013Z,83.70
2019-02-16T18:55:19.084Z,83.90
2019-02-16T18:57:58.002Z,84.00
2019-02-16T19:00:48.573Z,84.20
2019-02-16T19:03:42.493Z,84.30
2019-02-16T19:06:32.854Z,84.40
2019-02-16T19:09:19.876Z,84.50
2019-02-16T19:12:08.010Z,84.30
2019-02-16T19:14:53.940Z,84.20
2019-02-16T19:17:41.206Z,84.60
2019-02-16T19:20:34.658Z,84.50
2019-02-16T19:23:12.579Z,84.90
2019-02-16T19:25:52.959Z,84.90
2019-02-16T19:28:27.263Z,84.60
2019-02-16T19:31:17.325Z,84.70
2019-02-16T19:34:16.296Z,84.50
2019-02-16T19:37:15.780Z,84.40
2019-02-16T19:40:02.212Z,84.40
2019-02-16T19:42:58.443Z,84.40
2019-02-16T19:46:00.684Z,84.40
2019-02-16T19:48:50.493Z,84.30
2019-02-16T19:51:30.062Z,84.30
2019-02-16T19:54:09.231Z,85.20
2019-02-16T19:56:43.201Z,84.70
2019-02-16T19:59:33.850Z,84.80
2019-02-16T20:02:21.020Z,84.90
2019-02-16T20:05:17.201Z,84.90
2019-02-16T20:08:04.283Z,85.00
2019-02-16T20:10:49.878Z,84.90
2019-02-16T20:13:43.629Z,84.90
2019-02-16T20:16:34.110Z,84.70
2019-02-16T20:19:20.932Z,84.60
2019-02-16T20:22:17.374Z,84.60
2019-02-16T20:25:08.782Z,84.50
2019-02-16T20:27:56.407Z,84.50
2019-02-16T20:30:58.789Z,84.40
2019-02-16T20:33:44.987Z,84.60
2019-02-16T20:36:28.401Z,84.30
2019-02-16T20:39:16.702Z,84.30
2019-02-16T20:42:06.934Z,84.80
2019-02-16T20:44:43.621Z,84.30
2019-02-16T20:47:37.925Z,84.50
2019-02-16T20:50:25.341Z,84.00
2019-02-16T20:53:25.270Z,84.30
2019-02-16T20:56:11.250Z,84.60
2019-02-16T20:58:48.918Z,84.30
2019-02-16T21:01:25.679Z,84.30
2019-02-16T21:04:11.701Z,84.40
2019-02-16T21:06:53.362Z,85.00
2019-02-16T21:09:50.148Z,84.70
2019-02-16T21:12:37.260Z,84.70
2019-02-16T21:15:28.382Z,84.40
2019-02-16T21:18:14.363Z,84.40
2019-02-16T21:21:02.438Z,84.40
2019-02-16T21:23:55.396Z,84.50
2019-02-16T21:26:45.245Z,84.60
2019-02-16T21:29:34.359Z,85.50
2019-02-16T21:32:21.729Z,84.80
2019-02-16T21:34:58.703Z,85.10
2019-02-16T21:37:49.267Z,84.80
2019-02-16T21:40:25.832Z,84.90
2019-02-16T21:43:25.283Z,85.00
2019-02-16T21:46:11.687Z,84.80
2019-02-16T21:49:02.337Z,84.80
2019-02-16T21:51:47.041Z,85.50
2019-02-16T21:54:34.462Z,84.90
2019-02-16T21:57:09.814Z,84.90
2019-02-16T22:00:02.951Z,84.90
2019-02-16T22:02:48.814Z,85.00
2019-02-16T22:05:44.995Z,85.00
2019-02-16T22:08:35.023Z,85.20
2019-02-16T22:11:08.721Z,84.60
2019-02-16T22:13:36.557Z,84.90
2019-02-16T22:16:06.574Z,85.00
2019-02-16T22:18:33.867Z,84.90
2019-02-16T22:21:01.365Z,84.50
2019-02-16T22:23:29.641Z,84.70
2019-02-16T22:25:58.229Z,85.00
2019-02-16T22:28:30.987Z,84.80
2019-02-16T22:30:55.296Z,84.80
2019-02-16T22:33:22.707Z,84.90
2019-02-16T22:35:50.678Z,84.90
2019-02-16T22:38:18.289Z,85.00
2019-02-16T22:40:46.142Z,84.80
2019-02-16T22:43:13.846Z,84.70
2019-02-16T22:45:41.143Z,84.80
2019-02-16T22:48:10.426Z,84.90
2019-02-16T22:50:39.809Z,85.00
2019-02-16T22:53:08.137Z,84.80
2019-02-16T22:55:35.923Z,84.50
2019-02-16T22:58:03.893Z,84.30
2019-02-16T23:00:47.569Z,83.90
2019-02-16T23:03:15.912Z,84.10
2019-02-16T23:05:43.673Z,84.10
2019-02-16T23:08:11.541Z,84.00
2019-02-16T23:10:39.104Z,84.00
2019-02-16T23:13:06.497Z,84.00
2019-02-16T23:15:33.871Z,84.00
2019-02-16T23:18:01.278Z,84.00
2019-02-16T23:20:28.612Z,84.00
2019-02-16T23:22:56.107Z,84.10
2019-02-16T23:25:23.745Z,84.00
2019-02-16T23:27:51.481Z,83.90
2019-02-16T23:30:18.988Z,84.00
2019-02-16T23:32:46.481Z,84.00
2019-02-16T23:35:14.231Z,84.80
2019-02-16T23:37:42.657Z,83.90
2019-02-16T23:40:10.827Z,84.00
2019-02-16T23:42:38.510Z,84.10
2019-02-16T23:45:06.292Z,84.40
2019-02-16T23:47:38.286Z,84.60
2019-02-16T23:50:06.791Z,84.60
2019-02-16T23:52:34.390Z,84.90
2019-02-16T23:55:01.893Z,85.10
2019-02-16T23:57:29.474Z,85.20
2019-02-16T23:59:57.721Z,85.30
